createdAt,value
2022-08-17T00:00:54.402Z,1006.00
2022-08-17T00:01:54.713Z,1005.99
2022-08-17T00:04:39.299Z,1006.07
2022-08-17T00:05:11.480Z,1006.04
2022-08-17T00:06:11.809Z,1006.04
2022-08-17T00:07:12.131Z,1006.01
2022-08-17T00:08:12.459Z,1005.95
2022-08-17T00:09:12.784Z,1005.94
2022-08-17T00:10:14.084Z,1005.98
2022-08-17T00:11:13.354Z,1005.98
2022-08-17T00:12:41.141Z,1005.96
2022-08-17T00:13:14.971Z,1005.99
2022-08-17T00:14:14.221Z,1005.99
2022-08-17T00:15:14.554Z,1006.00
2022-08-17T00:16:14.886Z,1005.99
2022-08-17T00:17:15.217Z,1005.95
2022-08-17T00:18:53.937Z,1005.93
2022-08-17T00:19:16.845Z,1005.92
2022-08-17T00:20:16.091Z,1005.92
2022-08-17T00:21:16.337Z,1005.94
2022-08-17T00:22:34.181Z,1005.97
2022-08-17T00:23:17.976Z,1006.03
2022-08-17T00:24:17.217Z,1006.02
2022-08-17T00:25:17.535Z,1005.97
2022-08-17T00:26:44.544Z,1006.05
2022-08-17T00:27:19.152Z,1005.96
2022-08-17T00:28:18.408Z,1006.06
2022-08-17T00:29:19.887Z,1006.07
2022-08-17T00:30:19.000Z,1006.12
2022-08-17T00:31:19.341Z,1006.05
2022-08-17T00:33:13.673Z,1006.13
2022-08-17T00:33:20.938Z,1006.08
2022-08-17T00:34:20.181Z,1006.07
2022-08-17T00:35:20.509Z,1006.10
2022-08-17T00:36:20.852Z,1006.09
2022-08-17T00:37:21.161Z,1006.07
2022-08-17T00:38:21.480Z,1006.07
2022-08-17T00:39:21.803Z,1006.02
2022-08-17T00:40:22.112Z,1006.02
2022-08-17T00:41:22.465Z,1006.02
2022-08-17T00:42:24.493Z,1005.99
2022-08-17T00:43:23.027Z,1006.03
2022-08-17T00:44:23.357Z,1005.99
2022-08-17T00:45:24.660Z,1005.99
2022-08-17T00:46:23.936Z,1005.97
2022-08-17T00:47:24.265Z,1005.97
2022-08-17T00:48:29.690Z,1005.96
2022-08-17T00:49:25.889Z,1005.97
2022-08-17T00:50:25.146Z,1005.98
2022-08-17T00:51:25.486Z,1005.92
2022-08-17T00:52:25.806Z,1005.95
2022-08-17T00:53:26.135Z,1005.93
2022-08-17T00:54:26.456Z,1005.99
2022-08-17T00:55:26.770Z,1005.90
2022-08-17T00:56:27.117Z,1005.99
2022-08-17T00:57:27.437Z,1005.94
2022-08-17T00:58:35.732Z,1005.96
2022-08-17T00:59:29.051Z,1005.97
2022-08-17T01:00:28.313Z,1005.93
2022-08-17T01:01:28.681Z,1005.90
2022-08-17T01:02:28.894Z,1005.90
2022-08-17T01:03:30.191Z,1006.00
2022-08-17T01:04:29.445Z,1005.98
2022-08-17T01:05:29.761Z,1005.99
2022-08-17T01:06:30.095Z,1005.96
2022-08-17T01:07:30.341Z,1005.94
2022-08-17T01:08:30.645Z,1005.96
2022-08-17T01:09:30.959Z,1006.01
2022-08-17T01:10:58.345Z,1005.99
2022-08-17T01:11:32.626Z,1006.00
2022-08-17T01:12:31.878Z,1006.05
2022-08-17T01:13:35.480Z,1006.03
2022-08-17T01:14:33.506Z,1006.05
2022-08-17T01:15:32.754Z,1006.07
2022-08-17T01:16:33.086Z,1006.04
2022-08-17T01:17:33.398Z,1006.12
2022-08-17T01:18:33.719Z,1006.14
2022-08-17T01:19:34.040Z,1006.13
2022-08-17T01:20:43.071Z,1006.16
2022-08-17T01:21:35.650Z,1006.11
2022-08-17T01:22:34.898Z,1006.10
2022-08-17T01:23:35.221Z,1006.12
2022-08-17T01:24:35.543Z,1006.14
2022-08-17T01:25:35.871Z,1006.12
2022-08-17T01:26:36.180Z,1006.10
2022-08-17T01:27:36.511Z,1006.04
2022-08-17T01:28:54.328Z,1006.16
2022-08-17T01:29:38.045Z,1006.08
2022-08-17T01:30:56.994Z,1006.14
2022-08-17T01:31:38.593Z,1006.07
2022-08-17T01:32:37.882Z,1006.13
2022-08-17T01:33:38.072Z,1006.14
2022-08-17T01:34:43.646Z,1006.14
2022-08-17T01:35:39.685Z,1006.16
2022-08-17T01:36:38.946Z,1006.14
2022-08-17T01:37:39.255Z,1006.16
2022-08-17T01:38:39.631Z,1006.20
2022-08-17T01:39:39.879Z,1006.18
2022-08-17T01:40:40.109Z,1006.16
2022-08-17T01:41:40.451Z,1006.24
2022-08-17T01:42:40.768Z,1006.19
2022-08-17T01:43:41.089Z,1006.24
2022-08-17T01:44:41.400Z,1006.24
2022-08-17T01:45:41.725Z,1006.25
2022-08-17T01:46:42.104Z,1006.22
2022-08-17T01:47:42.329Z,1006.21
2022-08-17T01:48:42.650Z,1006.28
2022-08-17T01:49:42.969Z,1006.28
2022-08-17T01:50:43.283Z,1006.27
2022-08-17T01:51:43.628Z,1006.27
2022-08-17T01:52:43.942Z,1006.24
2022-08-17T01:53:44.261Z,1006.24
2022-08-17T01:54:44.575Z,1006.27
2022-08-17T01:55:44.883Z,1006.28
2022-08-17T01:56:47.329Z,1006.26
2022-08-17T01:57:45.504Z,1006.23
2022-08-17T01:58:45.811Z,1006.28
2022-08-17T01:59:46.132Z,1006.22
2022-08-17T02:00:46.793Z,1006.22
2022-08-17T02:01:47.831Z,1006.28
2022-08-17T02:02:46.993Z,1006.28
2022-08-17T02:03:53.470Z,1006.23
2022-08-17T02:04:48.637Z,1006.27
2022-08-17T02:05:47.866Z,1006.30
2022-08-17T02:06:53.187Z,1006.22
2022-08-17T02:08:00.182Z,1006.19
2022-08-17T02:09:01.704Z,1006.24
2022-08-17T02:09:52.633Z,1006.23
2022-08-17T02:10:49.506Z,1006.26
2022-08-17T02:11:49.913Z,1006.30
2022-08-17T02:12:50.265Z,1006.20
2022-08-17T02:13:57.907Z,1006.25
2022-08-17T02:14:51.710Z,1006.24
2022-08-17T02:15:50.959Z,1006.27
2022-08-17T02:16:51.292Z,1006.28
2022-08-17T02:17:54.582Z,1006.19
2022-08-17T02:18:51.870Z,1006.27
2022-08-17T02:19:52.178Z,1006.21
2022-08-17T02:20:52.491Z,1006.22
2022-08-17T02:21:52.814Z,1006.22
2022-08-17T02:22:53.126Z,1006.26
2022-08-17T02:23:53.446Z,1006.17
2022-08-17T02:24:59.536Z,1006.25
2022-08-17T02:25:55.044Z,1006.22
2022-08-17T02:26:54.283Z,1006.25
2022-08-17T02:27:54.595Z,1006.24
2022-08-17T02:28:54.926Z,1006.26
2022-08-17T02:29:55.235Z,1006.24
2022-08-17T02:31:02.002Z,1006.25
2022-08-17T02:31:56.861Z,1006.21
2022-08-17T02:32:56.108Z,1006.23
2022-08-17T02:34:00.403Z,1006.26
2022-08-17T02:34:57.663Z,1006.26
2022-08-17T02:35:56.911Z,1006.26
2022-08-17T02:36:57.239Z,1006.26
2022-08-17T02:37:57.556Z,1006.24
2022-08-17T02:38:57.879Z,1006.30
2022-08-17T02:39:58.475Z,1006.30
2022-08-17T02:40:58.439Z,1006.27
2022-08-17T02:41:58.782Z,1006.22
2022-08-17T02:42:59.088Z,1006.27
2022-08-17T02:43:59.419Z,1006.22
2022-08-17T02:44:59.744Z,1006.21
2022-08-17T02:46:00.074Z,1006.21
2022-08-17T02:47:00.400Z,1006.17
2022-08-17T02:48:00.721Z,1006.22
2022-08-17T02:49:01.027Z,1006.21
2022-08-17T02:50:01.355Z,1006.22
2022-08-17T02:51:01.673Z,1006.20
2022-08-17T02:52:02.014Z,1006.17
2022-08-17T02:53:02.924Z,1006.16
2022-08-17T02:54:41.042Z,1006.18
2022-08-17T02:55:03.859Z,1006.20
2022-08-17T02:56:03.099Z,1006.22
2022-08-17T02:57:03.414Z,1006.20
2022-08-17T02:58:03.765Z,1006.20
2022-08-17T02:59:04.065Z,1006.27
2022-08-17T03:00:04.407Z,1006.26
2022-08-17T03:01:04.741Z,1006.23
2022-08-17T03:02:05.099Z,1006.21
2022-08-17T03:03:05.305Z,1006.25
2022-08-17T03:04:05.628Z,1006.23
2022-08-17T03:05:05.957Z,1006.21
2022-08-17T03:06:06.276Z,1006.25
2022-08-17T03:07:07.460Z,1006.24
2022-08-17T03:08:06.829Z,1006.22
2022-08-17T03:09:07.105Z,1006.27
2022-08-17T03:10:07.428Z,1006.17
2022-08-17T03:11:07.739Z,1006.17
2022-08-17T03:12:08.064Z,1006.18
2022-08-17T03:13:08.373Z,1006.21
2022-08-17T03:14:08.693Z,1006.20
2022-08-17T03:15:09.001Z,1006.21
2022-08-17T03:16:09.333Z,1006.25
2022-08-17T03:17:09.657Z,1006.25
2022-08-17T03:18:19.285Z,1006.21
2022-08-17T03:19:11.194Z,1006.23
2022-08-17T03:20:10.425Z,1006.21
2022-08-17T03:21:10.757Z,1006.17
2022-08-17T03:22:36.904Z,1006.25
2022-08-17T03:23:12.386Z,1006.21
2022-08-17T03:24:11.656Z,1006.25
2022-08-17T03:25:11.967Z,1006.22
2022-08-17T03:26:15.510Z,1006.23
2022-08-17T03:27:12.546Z,1006.23
2022-08-17T03:28:12.890Z,1006.21
2022-08-17T03:29:13.218Z,1006.28
2022-08-17T03:30:13.568Z,1006.17
2022-08-17T03:31:13.889Z,1006.21
2022-08-17T03:32:14.227Z,1006.24
2022-08-17T03:33:14.551Z,1006.22
2022-08-17T03:34:14.950Z,1006.23
2022-08-17T03:35:15.164Z,1006.25
2022-08-17T03:36:15.469Z,1006.22
2022-08-17T03:37:15.792Z,1006.21
2022-08-17T03:38:16.120Z,1006.21
2022-08-17T03:39:16.445Z,1006.22
2022-08-17T03:40:16.770Z,1006.21
2022-08-17T03:41:18.076Z,1006.21
2022-08-17T03:42:32.155Z,1006.22
2022-08-17T03:43:18.672Z,1006.20
2022-08-17T03:44:17.954Z,1006.29
2022-08-17T03:45:18.283Z,1006.24
2022-08-17T03:46:28.486Z,1006.23
2022-08-17T03:47:19.966Z,1006.26
2022-08-17T03:48:19.232Z,1006.20
2022-08-17T03:49:19.588Z,1006.28
2022-08-17T03:50:19.915Z,1006.21
2022-08-17T03:51:20.275Z,1006.25
2022-08-17T03:52:20.496Z,1006.17
2022-08-17T03:53:20.844Z,1006.28
2022-08-17T03:54:21.185Z,1006.18
2022-08-17T03:55:21.527Z,1006.19
2022-08-17T03:56:22.846Z,1006.21
2022-08-17T03:57:22.121Z,1006.15
2022-08-17T03:58:22.468Z,1006.17
2022-08-17T03:59:22.809Z,1006.17
2022-08-17T04:00:23.159Z,1006.19
2022-08-17T04:01:23.557Z,1006.17
2022-08-17T04:02:23.882Z,1006.15
2022-08-17T04:03:24.122Z,1006.18
2022-08-17T04:04:27.427Z,1006.14
2022-08-17T04:05:24.613Z,1006.21
2022-08-17T04:06:24.841Z,1006.19
2022-08-17T04:07:25.079Z,1006.17
2022-08-17T04:08:25.367Z,1006.19
2022-08-17T04:09:25.583Z,1006.18
2022-08-17T04:10:26.522Z,1006.17
2022-08-17T04:11:26.106Z,1006.21
2022-08-17T04:12:26.336Z,1006.21
2022-08-17T04:13:26.574Z,1006.18
2022-08-17T04:14:26.814Z,1006.25
2022-08-17T04:15:27.034Z,1006.26
2022-08-17T04:16:27.406Z,1006.23
2022-08-17T04:17:27.642Z,1006.24
2022-08-17T04:18:27.869Z,1006.23
2022-08-17T04:19:28.096Z,1006.26
2022-08-17T04:20:28.318Z,1006.29
2022-08-17T04:21:28.695Z,1006.24
2022-08-17T04:22:32.446Z,1006.26
2022-08-17T04:23:30.257Z,1006.27
2022-08-17T04:24:29.483Z,1006.29
2022-08-17T04:25:29.731Z,1006.31
2022-08-17T04:26:52.847Z,1006.34
2022-08-17T04:27:31.268Z,1006.35
2022-08-17T04:28:30.610Z,1006.35
2022-08-17T04:29:54.399Z,1006.39
2022-08-17T04:30:32.189Z,1006.39
2022-08-17T04:31:31.492Z,1006.39
2022-08-17T04:33:04.504Z,1006.35
2022-08-17T04:33:33.045Z,1006.32
2022-08-17T04:34:32.353Z,1006.33
2022-08-17T04:35:32.592Z,1006.34
2022-08-17T04:36:32.935Z,1006.38
2022-08-17T04:37:33.186Z,1006.42
2022-08-17T04:38:33.414Z,1006.43
2022-08-17T04:39:33.980Z,1006.44
2022-08-17T04:40:33.953Z,1006.41
2022-08-17T04:41:34.186Z,1006.42
2022-08-17T04:42:34.425Z,1006.42
2022-08-17T04:43:34.681Z,1006.43
2022-08-17T04:44:37.463Z,1006.43
2022-08-17T04:45:35.185Z,1006.49
2022-08-17T04:46:35.486Z,1006.50
2022-08-17T04:47:35.706Z,1006.48
2022-08-17T04:48:37.418Z,1006.51
2022-08-17T04:49:36.196Z,1006.56
2022-08-17T04:50:36.430Z,1006.56
2022-08-17T04:51:36.668Z,1006.57
2022-08-17T04:52:43.664Z,1006.59
2022-08-17T04:53:38.207Z,1006.60
2022-08-17T04:54:37.488Z,1006.59
2022-08-17T04:55:37.740Z,1006.58
2022-08-17T04:56:37.970Z,1006.56
2022-08-17T04:57:41.812Z,1006.61
2022-08-17T04:58:39.542Z,1006.55
2022-08-17T04:59:38.823Z,1006.57
2022-08-17T05:00:39.063Z,1006.57
2022-08-17T05:01:39.418Z,1006.64
2022-08-17T05:02:39.543Z,1006.64
2022-08-17T05:03:41.051Z,1006.65
2022-08-17T05:04:40.085Z,1006.67
2022-08-17T05:05:40.325Z,1006.67
2022-08-17T05:06:40.545Z,1006.70
2022-08-17T05:07:40.790Z,1006.63
2022-08-17T05:08:41.034Z,1006.66
2022-08-17T05:09:41.274Z,1006.67
2022-08-17T05:10:45.494Z,1006.71
2022-08-17T05:11:44.941Z,1006.73
2022-08-17T05:12:42.134Z,1006.67
2022-08-17T05:13:42.288Z,1006.75
2022-08-17T05:14:42.646Z,1006.71
2022-08-17T05:15:45.195Z,1006.73
2022-08-17T05:16:43.167Z,1006.72
2022-08-17T05:17:43.398Z,1006.71
2022-08-17T05:18:43.629Z,1006.71
2022-08-17T05:19:45.732Z,1006.67
2022-08-17T05:20:45.197Z,1006.74
2022-08-17T05:21:44.501Z,1006.60
2022-08-17T05:22:44.757Z,1006.67
2022-08-17T05:23:44.986Z,1006.61
2022-08-17T05:24:53.349Z,1006.63
2022-08-17T05:25:47.740Z,1006.64
2022-08-17T05:26:45.776Z,1006.67
2022-08-17T05:27:46.012Z,1006.63
2022-08-17T05:28:46.242Z,1006.70
2022-08-17T05:29:46.525Z,1006.71
2022-08-17T05:30:48.675Z,1006.67
2022-08-17T05:31:47.038Z,1006.70
2022-08-17T05:32:47.263Z,1006.63
2022-08-17T05:33:47.507Z,1006.63
2022-08-17T05:34:47.770Z,1006.61
2022-08-17T05:35:48.029Z,1006.63
2022-08-17T05:36:48.284Z,1006.62
2022-08-17T05:37:48.567Z,1006.66
2022-08-17T05:38:48.791Z,1006.65
2022-08-17T05:39:49.079Z,1006.76
2022-08-17T05:40:49.323Z,1006.69
2022-08-17T05:41:49.580Z,1006.74
2022-08-17T05:42:49.956Z,1006.71
2022-08-17T05:43:54.331Z,1006.70
2022-08-17T05:44:51.400Z,1006.70
2022-08-17T05:45:55.400Z,1006.72
2022-08-17T05:46:51.917Z,1006.67
2022-08-17T05:47:51.243Z,1006.72
2022-08-17T05:48:51.531Z,1006.71
2022-08-17T05:49:51.755Z,1006.63
2022-08-17T05:50:52.074Z,1006.64
2022-08-17T05:51:52.348Z,1006.73
2022-08-17T05:52:52.624Z,1006.66
2022-08-17T05:53:52.868Z,1006.70
2022-08-17T05:54:53.139Z,1006.72
2022-08-17T05:55:53.487Z,1006.74
2022-08-17T05:56:53.785Z,1006.73
2022-08-17T05:57:56.070Z,1006.71
2022-08-17T05:58:54.279Z,1006.69
2022-08-17T05:59:54.592Z,1006.75
2022-08-17T06:00:54.909Z,1006.74
2022-08-17T06:01:55.071Z,1006.76
2022-08-17T06:02:55.480Z,1006.71
2022-08-17T06:03:55.645Z,1006.65
2022-08-17T06:04:55.932Z,1006.69
2022-08-17T06:05:56.214Z,1006.67
2022-08-17T06:06:56.506Z,1006.70
2022-08-17T06:07:56.815Z,1006.73
2022-08-17T06:08:57.086Z,1006.72
2022-08-17T06:09:57.367Z,1006.73
2022-08-17T06:10:57.717Z,1006.70
2022-08-17T06:11:58.838Z,1006.74
2022-08-17T06:12:58.197Z,1006.80
2022-08-17T06:13:58.470Z,1006.79
2022-08-17T06:14:58.757Z,1006.76
2022-08-17T06:15:58.999Z,1006.80
2022-08-17T06:16:59.250Z,1006.81
2022-08-17T06:17:59.521Z,1006.85
2022-08-17T06:18:59.814Z,1006.85
2022-08-17T06:20:00.194Z,1006.82
2022-08-17T06:21:00.323Z,1006.83
2022-08-17T06:22:00.584Z,1006.83
2022-08-17T06:23:00.864Z,1006.83
2022-08-17T06:24:01.115Z,1006.86
2022-08-17T06:25:01.376Z,1006.83
2022-08-17T06:26:01.639Z,1006.86
2022-08-17T06:27:01.923Z,1006.81
2022-08-17T06:28:02.196Z,1006.82
2022-08-17T06:29:02.448Z,1006.88
2022-08-17T06:30:02.717Z,1006.83
2022-08-17T06:31:02.970Z,1006.79
2022-08-17T06:32:03.236Z,1006.81
2022-08-17T06:33:03.490Z,1006.81
2022-08-17T06:34:03.749Z,1006.83
2022-08-17T06:35:04.011Z,1006.78
2022-08-17T06:36:09.200Z,1006.87
2022-08-17T06:37:05.608Z,1006.88
2022-08-17T06:38:04.923Z,1006.87
2022-08-17T06:39:05.188Z,1006.89
2022-08-17T06:40:05.497Z,1006.86
2022-08-17T06:41:05.766Z,1006.92
2022-08-17T06:42:06.094Z,1006.89
2022-08-17T06:43:07.352Z,1006.93
2022-08-17T06:44:06.576Z,1006.90
2022-08-17T06:45:06.894Z,1006.94
2022-08-17T06:46:07.155Z,1006.96
2022-08-17T06:47:07.401Z,1006.96
2022-08-17T06:48:07.636Z,1006.99
2022-08-17T06:49:07.903Z,1007.00
2022-08-17T06:50:08.147Z,1006.99
2022-08-17T06:51:08.398Z,1007.01
2022-08-17T06:52:08.636Z,1007.02
2022-08-17T06:53:08.880Z,1007.06
2022-08-17T06:54:09.125Z,1007.03
2022-08-17T06:55:09.398Z,1007.07
2022-08-17T06:56:10.608Z,1007.09
2022-08-17T06:57:09.960Z,1007.10
2022-08-17T06:58:15.991Z,1007.08
2022-08-17T06:59:11.543Z,1007.09
2022-08-17T07:00:10.873Z,1007.11
2022-08-17T07:01:11.179Z,1007.13
2022-08-17T07:02:11.442Z,1007.10
2022-08-17T07:03:11.694Z,1007.04
2022-08-17T07:04:12.355Z,1007.05
2022-08-17T07:05:12.185Z,1007.06
2022-08-17T07:06:12.434Z,1007.14
2022-08-17T07:07:12.684Z,1007.13
2022-08-17T07:08:12.927Z,1007.13
2022-08-17T07:09:13.167Z,1007.14
2022-08-17T07:10:13.428Z,1007.12
2022-08-17T07:11:13.657Z,1007.11
2022-08-17T07:12:13.907Z,1007.16
2022-08-17T07:13:14.149Z,1007.19
2022-08-17T07:14:17.379Z,1007.15
2022-08-17T07:15:14.674Z,1007.21
2022-08-17T07:16:14.928Z,1007.15
2022-08-17T07:17:15.187Z,1007.14
2022-08-17T07:18:15.424Z,1007.15
2022-08-17T07:19:15.693Z,1007.12
2022-08-17T07:20:16.023Z,1007.11
2022-08-17T07:21:18.545Z,1007.14
2022-08-17T07:22:16.574Z,1007.13
2022-08-17T07:23:16.814Z,1007.13
2022-08-17T07:24:29.975Z,1007.12
2022-08-17T07:25:18.326Z,1007.14
2022-08-17T07:26:17.700Z,1007.13
2022-08-17T07:27:17.784Z,1007.06
2022-08-17T07:28:18.054Z,1007.08
2022-08-17T07:29:18.318Z,1007.11
2022-08-17T07:30:18.530Z,1007.12
2022-08-17T07:31:18.768Z,1007.13
2022-08-17T07:32:19.018Z,1007.11
2022-08-17T07:33:19.260Z,1007.09
2022-08-17T07:34:19.512Z,1007.21
2022-08-17T07:35:19.922Z,1007.16
2022-08-17T07:36:20.019Z,1007.22
2022-08-17T07:37:20.261Z,1007.26
2022-08-17T07:38:25.370Z,1007.27
2022-08-17T07:39:21.863Z,1007.24
2022-08-17T07:40:21.253Z,1007.22
2022-08-17T07:41:23.055Z,1007.25
2022-08-17T07:42:21.824Z,1007.30
2022-08-17T07:43:23.564Z,1007.26
2022-08-17T07:44:22.347Z,1007.25
2022-08-17T07:45:22.577Z,1007.20
2022-08-17T07:46:22.832Z,1007.24
2022-08-17T07:47:23.046Z,1007.15
2022-08-17T07:48:23.309Z,1007.13
2022-08-17T07:49:23.569Z,1007.12
2022-08-17T07:50:25.869Z,1007.14
2022-08-17T07:51:24.156Z,1007.13
2022-08-17T07:52:51.881Z,1007.12
2022-08-17T07:53:25.690Z,1007.11
2022-08-17T07:54:25.030Z,1007.13
2022-08-17T07:55:25.290Z,1007.12
2022-08-17T07:56:25.530Z,1007.17
2022-08-17T07:57:30.045Z,1007.16
2022-08-17T07:58:26.123Z,1007.15
2022-08-17T07:59:28.656Z,1007.16
2022-08-17T08:00:32.192Z,1007.15
2022-08-17T08:01:27.942Z,1007.18
2022-08-17T08:02:33.460Z,1007.14
2022-08-17T08:03:28.615Z,1007.20
2022-08-17T08:04:58.989Z,1007.18
2022-08-17T08:05:46.627Z,1007.15
2022-08-17T08:06:29.365Z,1007.18
2022-08-17T08:07:28.737Z,1007.11
2022-08-17T08:08:28.984Z,1007.09
2022-08-17T08:09:29.228Z,1007.11
2022-08-17T08:10:29.461Z,1007.10
2022-08-17T08:11:29.699Z,1007.17
2022-08-17T08:12:33.408Z,1007.17
2022-08-17T08:13:30.339Z,1007.16
2022-08-17T08:14:31.116Z,1007.13
2022-08-17T08:15:30.821Z,1007.16
2022-08-17T08:16:31.069Z,1007.17
2022-08-17T08:17:31.419Z,1007.17
2022-08-17T08:18:54.020Z,1007.19
2022-08-17T08:19:32.972Z,1007.24
2022-08-17T08:20:52.763Z,1007.28
2022-08-17T08:21:33.603Z,1007.22
2022-08-17T08:22:32.980Z,1007.27
2022-08-17T08:23:33.203Z,1007.26
2022-08-17T08:24:33.474Z,1007.27
2022-08-17T08:25:33.706Z,1007.26
2022-08-17T08:26:34.008Z,1007.26
2022-08-17T08:27:34.249Z,1007.25
2022-08-17T08:28:34.480Z,1007.26
2022-08-17T08:29:34.763Z,1007.24
2022-08-17T08:30:34.961Z,1007.16
2022-08-17T08:31:40.173Z,1007.18
2022-08-17T08:32:36.530Z,1007.18
2022-08-17T08:33:35.851Z,1007.10
2022-08-17T08:35:00.836Z,1007.16
2022-08-17T08:35:37.425Z,1007.17
2022-08-17T08:37:14.274Z,1007.15
2022-08-17T08:37:42.722Z,1007.15
2022-08-17T08:38:38.331Z,1007.16
2022-08-17T08:39:37.679Z,1007.17
2022-08-17T08:40:37.934Z,1007.15
2022-08-17T08:41:38.197Z,1007.16
2022-08-17T08:42:38.504Z,1007.14
2022-08-17T08:43:38.747Z,1007.17
2022-08-17T08:45:00.801Z,1007.19
2022-08-17T08:45:40.341Z,1007.21
2022-08-17T08:46:39.640Z,1007.23
2022-08-17T08:47:39.868Z,1007.22
2022-08-17T08:48:56.376Z,1007.24
2022-08-17T08:50:41.700Z,1007.24
2022-08-17T08:51:41.001Z,1007.25
2022-08-17T08:52:41.229Z,1007.25
2022-08-17T08:53:41.490Z,1007.24
2022-08-17T08:54:41.729Z,1007.25
2022-08-17T08:55:41.981Z,1007.24
2022-08-17T08:57:11.645Z,1007.26
2022-08-17T08:57:43.544Z,1007.24
2022-08-17T08:58:42.934Z,1007.31
2022-08-17T08:59:44.592Z,1007.23
2022-08-17T09:00:44.437Z,1007.23
2022-08-17T09:01:43.757Z,1007.26
2022-08-17T09:02:44.009Z,1007.30
2022-08-17T09:03:52.723Z,1007.26
2022-08-17T09:05:12.858Z,1007.26
2022-08-17T09:05:45.817Z,1007.22
2022-08-17T09:06:45.149Z,1007.21
2022-08-17T09:07:57.336Z,1007.21
2022-08-17T09:08:45.723Z,1007.20
2022-08-17T09:09:46.142Z,1007.19
2022-08-17T09:10:46.192Z,1007.20
2022-08-17T09:12:02.202Z,1007.15
2022-08-17T09:12:47.739Z,1007.17
2022-08-17T09:13:47.015Z,1007.19
2022-08-17T09:14:48.321Z,1007.19
2022-08-17T09:15:47.625Z,1007.15
2022-08-17T09:16:47.855Z,1007.22
2022-08-17T09:17:48.157Z,1007.17
2022-08-17T09:19:02.608Z,1007.12
2022-08-17T09:19:49.705Z,1007.12
2022-08-17T09:20:50.337Z,1007.11
2022-08-17T09:21:49.290Z,1007.11
2022-08-17T09:22:49.573Z,1007.09
2022-08-17T09:23:49.776Z,1007.13
2022-08-17T09:24:50.001Z,1007.02
2022-08-17T09:25:50.253Z,1007.04
2022-08-17T09:26:50.480Z,1007.11
2022-08-17T09:27:50.866Z,1007.10
2022-08-17T09:28:51.035Z,1007.07
2022-08-17T09:29:51.272Z,1007.07
2022-08-17T09:30:51.493Z,1007.10
2022-08-17T09:31:51.726Z,1007.12
2022-08-17T09:32:51.977Z,1007.07
2022-08-17T09:33:52.225Z,1007.12
2022-08-17T09:34:52.502Z,1007.12
2022-08-17T09:35:52.697Z,1007.09
2022-08-17T09:36:52.915Z,1007.05
2022-08-17T09:37:53.164Z,1007.01
2022-08-17T09:38:53.388Z,1007.05
2022-08-17T09:39:53.706Z,1007.10
2022-08-17T09:40:53.942Z,1007.05
2022-08-17T09:41:54.170Z,1007.04
2022-08-17T09:42:54.393Z,1007.05
2022-08-17T09:43:54.620Z,1007.07
2022-08-17T09:44:54.861Z,1007.06
2022-08-17T09:45:55.092Z,1007.08
2022-08-17T09:46:55.320Z,1007.05
2022-08-17T09:47:55.575Z,1007.04
2022-08-17T09:48:55.813Z,1007.05
2022-08-17T09:49:56.189Z,1007.02
2022-08-17T09:51:05.783Z,1006.98
2022-08-17T09:51:57.723Z,1007.03
2022-08-17T09:52:57.013Z,1007.04
2022-08-17T09:54:14.775Z,1007.07
2022-08-17T09:54:58.544Z,1007.03
2022-08-17T09:55:57.844Z,1007.05
2022-08-17T09:57:25.809Z,1007.06
2022-08-17T09:57:59.777Z,1007.08
2022-08-17T09:58:58.679Z,1007.10
2022-08-17T09:59:59.040Z,1007.05
2022-08-17T10:00:59.301Z,1007.05
2022-08-17T10:01:59.536Z,1007.04
2022-08-17T10:02:59.769Z,1007.05
2022-08-17T10:04:00.005Z,1007.06
2022-08-17T10:05:00.250Z,1007.01
2022-08-17T10:06:00.460Z,1007.11
2022-08-17T10:07:00.753Z,1007.08
2022-08-17T10:08:01.112Z,1006.99
2022-08-17T10:09:01.334Z,1007.00
2022-08-17T10:10:01.613Z,1007.01
2022-08-17T10:11:01.866Z,1006.98
2022-08-17T10:12:02.102Z,1007.11
2022-08-17T10:13:02.329Z,1007.03
2022-08-17T10:14:02.575Z,1007.02
2022-08-17T10:15:07.813Z,1007.06
2022-08-17T10:16:04.237Z,1007.14
2022-08-17T10:17:03.587Z,1007.08
2022-08-17T10:18:03.827Z,1007.04
2022-08-17T10:19:04.048Z,1007.01
2022-08-17T10:20:04.438Z,1006.99
2022-08-17T10:21:05.606Z,1006.97
2022-08-17T10:22:15.008Z,1006.99
2022-08-17T10:23:06.195Z,1006.97
2022-08-17T10:24:05.489Z,1007.03
2022-08-17T10:25:22.856Z,1006.99
2022-08-17T10:26:07.030Z,1006.99
2022-08-17T10:27:06.346Z,1006.95
2022-08-17T10:28:06.577Z,1007.00
2022-08-17T10:29:06.893Z,1006.94
2022-08-17T10:30:07.127Z,1006.97
2022-08-17T10:32:08.686Z,1006.97
2022-08-17T10:33:08.187Z,1006.95
2022-08-17T10:34:09.566Z,1006.99
2022-08-17T10:35:08.504Z,1006.86
2022-08-17T10:36:10.805Z,1006.91
2022-08-17T10:37:09.016Z,1006.88
2022-08-17T10:38:09.395Z,1006.87
2022-08-17T10:39:09.579Z,1006.87
2022-08-17T10:40:10.073Z,1006.84
2022-08-17T10:41:10.150Z,1006.85
2022-08-17T10:42:10.529Z,1006.85
2022-08-17T10:43:10.740Z,1006.80
2022-08-17T10:44:39.516Z,1006.78
2022-08-17T10:45:14.276Z,1006.80
2022-08-17T10:46:30.324Z,1006.79
2022-08-17T10:47:12.892Z,1006.82
2022-08-17T10:48:12.578Z,1006.79
2022-08-17T10:49:12.499Z,1006.81
2022-08-17T10:50:12.815Z,1006.84
2022-08-17T10:51:13.045Z,1006.83
2022-08-17T10:52:15.667Z,1006.87
2022-08-17T10:53:17.905Z,1006.80
2022-08-17T10:54:14.907Z,1006.78
2022-08-17T10:55:14.204Z,1006.79
2022-08-17T10:56:14.428Z,1006.84
2022-08-17T10:57:14.710Z,1006.82
2022-08-17T10:58:14.947Z,1006.87
2022-08-17T10:59:16.167Z,1006.84
2022-08-17T11:00:17.230Z,1006.84
2022-08-17T11:01:15.832Z,1006.86
2022-08-17T11:02:16.097Z,1006.91
2022-08-17T11:03:17.289Z,1006.88
2022-08-17T11:04:16.584Z,1006.90
2022-08-17T11:05:16.812Z,1006.86
2022-08-17T11:06:17.051Z,1006.89
2022-08-17T11:07:17.297Z,1006.95
2022-08-17T11:08:17.534Z,1006.94
2022-08-17T11:09:17.772Z,1006.96
2022-08-17T11:10:18.016Z,1006.98
2022-08-17T11:11:18.337Z,1006.96
2022-08-17T11:12:18.582Z,1006.97
2022-08-17T11:13:18.817Z,1006.95
2022-08-17T11:14:19.071Z,1006.92
2022-08-17T11:15:19.297Z,1006.93
2022-08-17T11:16:19.538Z,1006.90
2022-08-17T11:17:19.783Z,1006.89
2022-08-17T11:18:20.790Z,1006.93
2022-08-17T11:19:21.181Z,1006.93
2022-08-17T11:20:20.632Z,1006.95
2022-08-17T11:21:20.862Z,1006.93
2022-08-17T11:22:21.120Z,1006.96
2022-08-17T11:23:21.381Z,1006.88
2022-08-17T11:24:21.652Z,1006.89
2022-08-17T11:25:21.871Z,1006.95
2022-08-17T11:26:22.111Z,1006.93
2022-08-17T11:27:22.364Z,1006.87
2022-08-17T11:28:22.717Z,1006.87
2022-08-17T11:29:24.592Z,1006.86
2022-08-17T11:30:23.176Z,1006.87
2022-08-17T11:31:23.417Z,1006.86
2022-08-17T11:32:25.527Z,1006.86
2022-08-17T11:33:23.960Z,1006.87
2022-08-17T11:34:24.207Z,1006.88
2022-08-17T11:35:24.438Z,1006.86
2022-08-17T11:36:24.759Z,1006.91
2022-08-17T11:37:24.999Z,1006.88
2022-08-17T11:38:25.254Z,1006.88
2022-08-17T11:39:25.569Z,1006.83
2022-08-17T11:40:25.861Z,1006.85
2022-08-17T11:41:26.099Z,1006.86
2022-08-17T11:42:26.350Z,1006.86
2022-08-17T11:43:26.593Z,1006.85
2022-08-17T11:44:26.825Z,1006.83
2022-08-17T11:45:32.292Z,1006.84
2022-08-17T11:46:28.339Z,1006.81
2022-08-17T11:47:27.626Z,1006.80
2022-08-17T11:48:29.033Z,1006.77
2022-08-17T11:49:28.097Z,1006.79
2022-08-17T11:50:28.325Z,1006.74
2022-08-17T11:51:28.569Z,1006.74
2022-08-17T11:52:28.822Z,1006.72
2022-08-17T11:53:29.058Z,1006.77
2022-08-17T11:54:34.100Z,1006.80
2022-08-17T11:55:41.764Z,1006.68
2022-08-17T11:56:30.990Z,1006.71
2022-08-17T11:57:30.289Z,1006.69
2022-08-17T11:58:31.302Z,1006.66
2022-08-17T11:59:30.771Z,1006.70
2022-08-17T12:00:31.010Z,1006.72
2022-08-17T12:01:31.242Z,1006.65
2022-08-17T12:02:32.523Z,1006.72
2022-08-17T12:03:31.939Z,1006.66
2022-08-17T12:04:32.112Z,1006.65
2022-08-17T12:05:32.335Z,1006.64
2022-08-17T12:06:32.592Z,1006.63
2022-08-17T12:07:32.830Z,1006.56
2022-08-17T12:08:33.064Z,1006.62
2022-08-17T12:09:33.308Z,1006.62
2022-08-17T12:10:33.550Z,1006.55
2022-08-17T12:12:01.542Z,1006.63
2022-08-17T12:12:35.106Z,1006.59